sensor_id;sensor_type;location;lat;lon;timestamp;temperature;humidity
54946;DHT22;40846;44.788;20.486;2023-04-25T06:12:42;308.00;2304.00
54946;DHT22;40846;44.788;20.486;2023-04-25T06:15:08;307.90;2304.00
54946;DHT22;40846;44.788;20.486;2023-04-25T06:17:34;307.80;2304.00
54946;DHT22;40846;44.788;20.486;2023-04-25T06:20:00;307.90;2304.00
54946;DHT22;40846;44.788;20.486;2023-04-25T06:22:27;307.70;2304.00
54946;DHT22;40846;44.788;20.486;2023-04-25T06:24:52;307.60;2304.00
54946;DHT22;40846;44.788;20.486;2023-04-25T06:27:18;307.70;2304.00
54946;DHT22;40846;44.788;20.486;2023-04-25T06:29:44;307.60;2304.00
54946;DHT22;40846;44.788;20.486;2023-04-25T06:32:09;307.60;2304.00
54946;DHT22;40846;44.788;20.486;2023-04-25T06:34:35;307.50;2304.00
54946;DHT22;40846;44.788;20.486;2023-04-25T06:44:21;307.60;2304.00
54946;DHT22;40846;44.788;20.486;2023-04-25T06:46:49;307.60;2304.00
54946;DHT22;40846;44.788;20.486;2023-04-25T06:49:15;307.60;2304.00
54946;DHT22;40846;44.788;20.486;2023-04-25T06:51:41;307.50;2304.00
54946;DHT22;40846;44.788;20.486;2023-04-25T06:54:06;307.60;2304.00
54946;DHT22;40846;44.788;20.486;2023-04-25T06:56:35;307.60;2304.00
54946;DHT22;40846;44.788;20.486;2023-04-25T06:59:01;307.70;2304.00
54946;DHT22;40846;44.788;20.486;2023-04-25T07:01:27;307.70;2304.00
54946;DHT22;40846;44.788;20.486;2023-04-25T07:03:58;307.60;2304.00
54946;DHT22;40846;44.788;20.486;2023-04-25T07:06:23;307.60;2304.00
54946;DHT22;40846;44.788;20.486;2023-04-25T07:08:51;307.60;2304.00
54946;DHT22;40846;44.788;20.486;2023-04-25T07:14:59;307.60;2304.00
54946;DHT22;40846;44.788;20.486;2023-04-25T07:21:08;307.70;2304.00
54946;DHT22;40846;44.788;20.486;2023-04-25T07:23:36;307.60;2304.00
54946;DHT22;40846;44.788;20.486;2023-04-25T07:26:18;307.60;2304.00
54946;DHT22;40846;44.788;20.486;2023-04-25T07:28:44;307.60;2304.00
54946;DHT22;40846;44.788;20.486;2023-04-25T07:31:33;307.60;2304.00
54946;DHT22;40846;44.788;20.486;2023-04-25T07:34:25;307.70;2304.00
54946;DHT22;40846;44.788;20.486;2023-04-25T07:36:51;307.70;2304.00
54946;DHT22;40846;44.788;20.486;2023-04-25T07:39:24;307.70;2304.00
54946;DHT22;40846;44.788;20.486;2023-04-25T07:42:06;307.80;2304.00
54946;DHT22;40846;44.788;20.486;2023-04-25T07:44:37;307.80;2304.00
54946;DHT22;40846;44.788;20.486;2023-04-25T07:47:10;307.90;2304.00
54946;DHT22;40846;44.788;20.486;2023-04-25T07:49:37;307.90;2304.00
54946;DHT22;40846;44.788;20.486;2023-04-25T07:52:08;307.90;2304.00
54946;DHT22;40846;44.788;20.486;2023-04-25T07:54:46;307.80;2304.00
54946;DHT22;40846;44.788;20.486;2023-04-25T08:00:01;333.00;2329.60
54946;DHT22;40846;44.788;20.486;2023-04-25T08:02:29;308.10;2304.00
54946;DHT22;40846;44.788;20.486;2023-04-25T08:05:03;308.10;2304.00
54946;DHT22;40846;44.788;20.486;2023-04-25T08:07:32;332.90;2329.60
54946;DHT22;40846;44.788;20.486;2023-04-25T08:09:58;308.10;2304.00
54946;DHT22;40846;44.788;20.486;2023-04-25T08:12:30;308.00;2304.00
54946;DHT22;40846;44.788;20.486;2023-04-25T08:15:04;308.10;2304.00
54946;DHT22;40846;44.788;20.486;2023-04-25T08:17:30;308.10;2304.00
54946;DHT22;40846;44.788;20.486;2023-04-25T08:19:56;308.10;2304.00
54946;DHT22;40846;44.788;20.486;2023-04-25T08:22:22;308.00;2304.00
54946;DHT22;40846;44.788;20.486;2023-04-25T08:24:48;308.10;2304.00
54946;DHT22;40846;44.788;20.486;2023-04-25T08:27:14;308.10;2304.00
54946;DHT22;40846;44.788;20.486;2023-04-25T08:29:41;332.80;2329.60
54946;DHT22;40846;44.788;20.486;2023-04-25T08:34:33;333.00;2329.60
54946;DHT22;40846;44.788;20.486;2023-04-25T08:36:59;333.10;2329.60
54946;DHT22;40846;44.788;20.486;2023-04-25T08:44:19;333.70;2329.60
54946;DHT22;40846;44.788;20.486;2023-04-25T08:46:47;333.50;2329.60
54946;DHT22;40846;44.788;20.486;2023-04-25T08:49:17;333.40;2329.60
54946;DHT22;40846;44.788;20.486;2023-04-25T08:51:45;333.40;2329.60
54946;DHT22;40846;44.788;20.486;2023-04-25T08:54:16;358.40;2329.60
54946;DHT22;40846;44.788;20.486;2023-04-25T08:56:45;333.50;2329.60
54946;DHT22;40846;44.788;20.486;2023-04-25T08:59:21;333.40;2329.60
54946;DHT22;40846;44.788;20.486;2023-04-25T09:01:49;333.40;2329.60
54946;DHT22;40846;44.788;20.486;2023-04-25T09:04:15;333.40;2329.60
54946;DHT22;40846;44.788;20.486;2023-04-25T09:06:41;333.60;2329.60
54946;DHT22;40846;44.788;20.486;2023-04-25T10:15:00;384.80;2329.60
54946;DHT22;40846;44.788;20.486;2023-04-25T10:17:27;384.70;2329.60
54946;DHT22;40846;44.788;20.486;2023-04-25T10:22:42;384.60;2329.60
54946;DHT22;40846;44.788;20.486;2023-04-25T10:30:09;384.10;2329.60
54946;DHT22;40846;44.788;20.486;2023-04-25T10:32:38;384.00;2329.60
54946;DHT22;40846;44.788;20.486;2023-04-25T10:35:30;384.00;2329.60
54946;DHT22;40846;44.788;20.486;2023-04-25T10:38:03;359.30;2329.60
54946;DHT22;40846;44.788;20.486;2023-04-25T10:40:33;384.00;2329.60
54946;DHT22;40846;44.788;20.486;2023-04-25T10:45:55;384.30;2329.60
54946;DHT22;40846;44.788;20.486;2023-04-25T10:48:30;384.50;2329.60
54946;DHT22;40846;44.788;20.486;2023-04-25T11:01:19;410.30;2355.20
54946;DHT22;40846;44.788;20.486;2023-04-25T11:03:56;410.00;2355.20
54946;DHT22;40846;44.788;20.486;2023-04-25T11:06:36;410.00;2355.20
54946;DHT22;40846;44.788;20.486;2023-04-25T11:11:39;410.20;2355.20
54946;DHT22;40846;44.788;20.486;2023-04-25T11:14:04;409.90;2355.20
54946;DHT22;40846;44.788;20.486;2023-04-25T11:16:30;410.00;2355.20
54946;DHT22;40846;44.788;20.486;2023-04-25T11:18:58;409.60;2355.20
54946;DHT22;40846;44.788;20.486;2023-04-25T11:21:25;384.80;2329.60
54946;DHT22;40846;44.788;20.486;2023-04-25T11:23:56;384.70;2329.60
54946;DHT22;40846;44.788;20.486;2023-04-25T11:26:24;384.80;2329.60
54946;DHT22;40846;44.788;20.486;2023-04-25T11:28:50;409.60;2355.20
54946;DHT22;40846;44.788;20.486;2023-04-25T11:31:16;409.60;2355.20
54946;DHT22;40846;44.788;20.486;2023-04-25T11:33:45;384.70;2329.60
54946;DHT22;40846;44.788;20.486;2023-04-25T11:36:11;384.60;2329.60
54946;DHT22;40846;44.788;20.486;2023-04-25T11:50:51;409.60;2355.20
54946;DHT22;40846;44.788;20.486;2023-04-25T11:53:18;384.70;2329.60
54946;DHT22;40846;44.788;20.486;2023-04-25T11:55:44;384.70;2329.60
54946;DHT22;40846;44.788;20.486;2023-04-25T12:00:41;409.60;2355.20
54946;DHT22;40846;44.788;20.486;2023-04-25T12:06:17;409.90;2355.20
54946;DHT22;40846;44.788;20.486;2023-04-25T12:09:08;409.90;2355.20
54946;DHT22;40846;44.788;20.486;2023-04-25T12:40:18;436.00;2355.20
54946;DHT22;40846;44.788;20.486;2023-04-25T12:42:47;435.80;2355.20
54946;DHT22;40846;44.788;20.486;2023-04-25T12:45:12;435.90;2355.20
54946;DHT22;40846;44.788;20.486;2023-04-25T12:47:38;435.80;2355.20
54946;DHT22;40846;44.788;20.486;2023-04-25T12:50:04;435.90;2355.20
54946;DHT22;40846;44.788;20.486;2023-04-25T12:52:33;460.80;2380.80
54946;DHT22;40846;44.788;20.486;2023-04-25T12:55:06;436.00;2355.20
54946;DHT22;40846;44.788;20.486;2023-04-25T12:57:33;436.00;2355.20
54946;DHT22;40846;44.788;20.486;2023-04-25T12:59:59;436.00;2355.20
54946;DHT22;40846;44.788;20.486;2023-04-25T13:02:24;435.90;2329.60
54946;DHT22;40846;44.788;20.486;2023-04-25T13:04:51;435.80;2355.20
54946;DHT22;40846;44.788;20.486;2023-04-25T13:07:17;435.80;2355.20
54946;DHT22;40846;44.788;20.486;2023-04-25T13:17:03;435.90;2355.20
54946;DHT22;40846;44.788;20.486;2023-04-25T13:19:29;435.80;2355.20
54946;DHT22;40846;44.788;20.486;2023-04-25T13:24:21;460.80;2380.80
54946;DHT22;40846;44.788;20.486;2023-04-25T13:26:46;460.80;2380.80
54946;DHT22;40846;44.788;20.486;2023-04-25T13:29:12;460.90;2380.80
54946;DHT22;40846;44.788;20.486;2023-04-25T13:31:38;436.00;2355.20
54946;DHT22;40846;44.788;20.486;2023-04-25T13:34:04;436.00;2355.20
54946;DHT22;40846;44.788;20.486;2023-04-25T13:36:30;460.80;2380.80
54946;DHT22;40846;44.788;20.486;2023-04-25T13:41:25;460.80;2380.80
54946;DHT22;40846;44.788;20.486;2023-04-25T13:43:51;436.10;2355.20
54946;DHT22;40846;44.788;20.486;2023-04-25T13:46:17;436.10;2329.60
54946;DHT22;40846;44.788;20.486;2023-04-25T13:48:43;435.90;2355.20
54946;DHT22;40846;44.788;20.486;2023-04-25T13:51:12;435.90;2355.20
54946;DHT22;40846;44.788;20.486;2023-04-25T13:53:38;436.00;2355.20
54946;DHT22;40846;44.788;20.486;2023-04-25T13:56:04;460.80;2380.80
54946;DHT22;40846;44.788;20.486;2023-04-25T13:58:30;460.80;2380.80
54946;DHT22;40846;44.788;20.486;2023-04-25T14:00:58;460.90;2380.80
54946;DHT22;40846;44.788;20.486;2023-04-25T14:03:23;460.80;2380.80
54946;DHT22;40846;44.788;20.486;2023-04-25T14:05:50;436.10;2355.20
54946;DHT22;40846;44.788;20.486;2023-04-25T14:08:16;436.10;2355.20
54946;DHT22;40846;44.788;20.486;2023-04-25T14:10:42;436.10;2201.60
54946;DHT22;40846;44.788;20.486;2023-04-25T14:13:07;436.10;2227.20
54946;DHT22;40846;44.788;20.486;2023-04-25T14:15:34;460.80;2227.20
54946;DHT22;40846;44.788;20.486;2023-04-25T14:18:00;436.10;2176.00
54946;DHT22;40846;44.788;20.486;2023-04-25T14:20:26;460.80;2201.60
54946;DHT22;40846;44.788;20.486;2023-04-25T14:22:52;460.80;2176.00
54946;DHT22;40846;44.788;20.486;2023-04-25T14:25:20;460.80;2201.60
54946;DHT22;40846;44.788;20.486;2023-04-25T14:27:46;460.80;2252.80
54946;DHT22;40846;44.788;20.486;2023-04-25T14:30:18;460.80;2227.20
54946;DHT22;40846;44.788;20.486;2023-04-25T14:32:44;460.90;2227.20
54946;DHT22;40846;44.788;20.486;2023-04-25T14:35:11;460.90;2176.00
54946;DHT22;40846;44.788;20.486;2023-04-25T16:46:13;436.10;1920.00
54946;DHT22;40846;44.788;20.486;2023-04-25T17:15:35;435.80;1945.60
54946;DHT22;40846;44.788;20.486;2023-04-25T17:54:34;435.40;2355.20
54946;DHT22;40846;44.788;20.486;2023-04-25T17:56:59;435.20;2355.20
54946;DHT22;40846;44.788;20.486;2023-04-25T17:59:25;410.40;2355.20
54946;DHT22;40846;44.788;20.486;2023-04-25T18:01:52;410.30;2355.20
54946;DHT22;40846;44.788;20.486;2023-04-25T18:04:18;410.30;2355.20
54946;DHT22;40846;44.788;20.486;2023-04-25T18:06:44;410.20;2355.20
54946;DHT22;40846;44.788;20.486;2023-04-25T18:09:09;410.30;2355.20
54946;DHT22;40846;44.788;20.486;2023-04-25T18:11:45;410.20;2355.20
54946;DHT22;40846;44.788;20.486;2023-04-25T18:14:12;410.20;2355.20
54946;DHT22;40846;44.788;20.486;2023-04-25T18:16:45;410.30;2355.20
54946;DHT22;40846;44.788;20.486;2023-04-25T18:19:11;410.30;2355.20
54946;DHT22;40846;44.788;20.486;2023-04-25T18:21:43;410.30;2355.20
54946;DHT22;40846;44.788;20.486;2023-04-25T18:24:10;410.20;2355.20
54946;DHT22;40846;44.788;20.486;2023-04-25T18:26:45;410.40;2355.20
54946;DHT22;40846;44.788;20.486;2023-04-25T18:56:11;410.20;2355.20
54946;DHT22;40846;44.788;20.486;2023-04-25T18:58:38;409.80;2355.20
54946;DHT22;40846;44.788;20.486;2023-04-25T19:01:04;409.90;2355.20
54946;DHT22;40846;44.788;20.486;2023-04-25T19:03:29;409.70;2355.20
54946;DHT22;40846;44.788;20.486;2023-04-25T19:05:55;409.60;2355.20
54946;DHT22;40846;44.788;20.486;2023-04-25T19:08:21;384.90;2329.60
54946;DHT22;40846;44.788;20.486;2023-04-25T19:10:48;384.80;2329.60
54946;DHT22;40846;44.788;20.486;2023-04-25T19:13:14;384.80;2329.60
54946;DHT22;40846;44.788;20.486;2023-04-25T19:15:41;384.70;2329.60
54946;DHT22;40846;44.788;20.486;2023-04-25T19:18:06;384.70;2329.60
54946;DHT22;40846;44.788;20.486;2023-04-25T19:20:32;384.70;2329.60
54946;DHT22;40846;44.788;20.486;2023-04-25T19:22:58;384.60;2329.60
54946;DHT22;40846;44.788;20.486;2023-04-25T19:25:24;384.70;2329.60
54946;DHT22;40846;44.788;20.486;2023-04-25T19:27:51;384.60;2329.60
54946;DHT22;40846;44.788;20.486;2023-04-25T19:30:16;384.50;2329.60
54946;DHT22;40846;44.788;20.486;2023-04-25T19:32:42;384.40;2329.60
54946;DHT22;40846;44.788;20.486;2023-04-25T19:52:30;384.60;2329.60
54946;DHT22;40846;44.788;20.486;2023-04-25T19:55:02;384.10;2329.60
54946;DHT22;40846;44.788;20.486;2023-04-25T19:57:41;384.30;2329.60
54946;DHT22;40846;44.788;20.486;2023-04-25T20:00:14;384.00;2329.60
54946;DHT22;40846;44.788;20.486;2023-04-25T20:15:51;359.20;2329.60
54946;DHT22;40846;44.788;20.486;2023-04-25T20:18:17;359.00;2329.60
54946;DHT22;40846;44.788;20.486;2023-04-25T20:20:53;359.10;2329.60
54946;DHT22;40846;44.788;20.486;2023-04-25T20:36:54;358.50;2329.60
54946;DHT22;40846;44.788;20.486;2023-04-25T20:39:20;333.70;2329.60
54946;DHT22;40846;44.788;20.486;2023-04-25T20:41:47;333.60;2329.60
54946;DHT22;40846;44.788;20.486;2023-04-25T20:44:14;333.60;2329.60
54946;DHT22;40846;44.788;20.486;2023-04-25T20:46:40;333.60;2329.60
54946;DHT22;40846;44.788;20.486;2023-04-25T20:49:06;333.70;2329.60
54946;DHT22;40846;44.788;20.486;2023-04-25T20:51:33;333.70;2329.60
54946;DHT22;40846;44.788;20.486;2023-04-25T20:56:28;333.70;2329.60
54946;DHT22;40846;44.788;20.486;2023-04-25T20:58:54;333.50;2329.60
54946;DHT22;40846;44.788;20.486;2023-04-25T21:01:22;333.50;2329.60
54946;DHT22;40846;44.788;20.486;2023-04-25T21:06:16;333.30;2329.60
54946;DHT22;40846;44.788;20.486;2023-04-25T21:08:42;333.10;2329.60
54946;DHT22;40846;44.788;20.486;2023-04-25T21:11:11;333.10;2329.60
54946;DHT22;40846;44.788;20.486;2023-04-25T21:13:40;333.20;2329.60
54946;DHT22;40846;44.788;20.486;2023-04-25T21:16:06;333.20;2329.60
54946;DHT22;40846;44.788;20.486;2023-04-25T21:18:32;333.10;2329.60
54946;DHT22;40846;44.788;20.486;2023-04-25T21:20:59;333.20;2329.60
54946;DHT22;40846;44.788;20.486;2023-04-25T21:23:34;333.20;2329.60
54946;DHT22;40846;44.788;20.486;2023-04-25T21:26:00;333.20;2329.60
54946;DHT22;40846;44.788;20.486;2023-04-25T21:28:26;333.20;2329.60
54946;DHT22;40846;44.788;20.486;2023-04-25T21:30:51;333.20;2329.60
54946;DHT22;40846;44.788;20.486;2023-04-25T21:33:17;333.20;2329.60
54946;DHT22;40846;44.788;20.486;2023-04-25T21:35:43;333.30;2329.60
54946;DHT22;40846;44.788;20.486;2023-04-25T21:38:08;333.30;2329.60
54946;DHT22;40846;44.788;20.486;2023-04-25T21:40:35;333.30;2329.60
54946;DHT22;40846;44.788;20.486;2023-04-25T21:43:02;333.30;2329.60
54946;DHT22;40846;44.788;20.486;2023-04-25T21:45:27;333.30;2329.60
54946;DHT22;40846;44.788;20.486;2023-04-25T21:47:56;333.20;2329.60
54946;DHT22;40846;44.788;20.486;2023-04-25T21:50:22;333.20;2329.60
54946;DHT22;40846;44.788;20.486;2023-04-25T21:52:48;333.20;2329.60
54946;DHT22;40846;44.788;20.486;2023-04-25T21:55:14;333.20;2329.60
54946;DHT22;40846;44.788;20.486;2023-04-25T21:57:41;333.10;2329.60
54946;DHT22;40846;44.788;20.486;2023-04-25T22:00:07;333.10;2329.60
54946;DHT22;40846;44.788;20.486;2023-04-25T22:02:46;333.10;2329.60
54946;DHT22;40846;44.788;20.486;2023-04-25T22:07:38;333.10;2329.60
54946;DHT22;40846;44.788;20.486;2023-04-25T22:10:04;332.90;2329.60
54946;DHT22;40846;44.788;20.486;2023-04-25T22:12:33;332.80;2329.60
54946;DHT22;40846;44.788;20.486;2023-04-25T22:14:58;308.10;2304.00
54946;DHT22;40846;44.788;20.486;2023-04-25T22:39:25;333.00;2329.60
54946;DHT22;40846;44.788;20.486;2023-04-25T22:41:51;332.80;2329.60
54946;DHT22;40846;44.788;20.486;2023-04-25T22:44:19;332.80;2329.60
54946;DHT22;40846;44.788;20.486;2023-04-25T22:46:46;308.00;2304.00
54946;DHT22;40846;44.788;20.486;2023-04-25T22:51:39;307.80;2304.00
54946;DHT22;40846;44.788;20.486;2023-04-25T23:16:06;307.60;2304.00
54946;DHT22;40846;44.788;20.486;2023-04-25T23:18:34;307.50;2304.00
54946;DHT22;40846;44.788;20.486;2023-04-25T23:21:00;307.60;2304.00
54946;DHT22;40846;44.788;20.486;2023-04-25T23:23:29;307.80;2304.00
54946;DHT22;40846;44.788;20.486;2023-04-25T23:25:55;307.80;2304.00
